createdAt,value
2018-06-12T00:01:15.195Z,17.20
2018-06-12T00:03:44.207Z,17.20
2018-06-12T00:06:13.162Z,17.10
2018-06-12T00:08:42.151Z,17.20
2018-06-12T00:11:11.150Z,17.10
2018-06-12T00:13:40.122Z,17.10
2018-06-12T00:16:09.103Z,17.10
2018-06-12T00:18:38.086Z,17.00
2018-06-12T00:21:07.074Z,17.00
2018-06-12T00:23:36.082Z,17.10
2018-06-12T00:26:05.330Z,17.10
2018-06-12T00:28:34.350Z,17.00
2018-06-12T00:31:03.374Z,17.00
2018-06-12T00:33:32.386Z,17.00
2018-06-12T00:36:01.507Z,16.90
2018-06-12T00:38:30.498Z,16.90
2018-06-12T00:40:59.500Z,17.00
2018-06-12T00:43:28.502Z,17.00
2018-06-12T00:45:57.527Z,17.10
2018-06-12T00:48:26.547Z,16.90
2018-06-12T00:50:55.511Z,17.00
2018-06-12T00:53:24.544Z,17.00
2018-06-12T00:55:53.614Z,17.00
2018-06-12T00:58:22.615Z,16.90
2018-06-12T01:00:51.607Z,16.80
2018-06-12T01:03:20.606Z,16.90
2018-06-12T01:05:49.558Z,16.80
2018-06-12T01:08:18.565Z,16.70
2018-06-12T01:10:47.546Z,16.60
2018-06-12T01:13:16.546Z,16.60
2018-06-12T01:15:45.563Z,16.60
2018-06-12T01:18:14.550Z,16.60
2018-06-12T01:20:43.565Z,16.60
2018-06-12T01:23:12.546Z,16.50
2018-06-12T01:25:41.571Z,16.50
2018-06-12T01:28:10.662Z,16.50
2018-06-12T01:30:39.639Z,16.40
2018-06-12T01:33:08.735Z,16.30
2018-06-12T01:35:37.659Z,16.20
2018-06-12T01:38:06.703Z,16.20
2018-06-12T01:40:35.662Z,16.20
2018-06-12T01:43:04.670Z,16.10
2018-06-12T01:45:33.657Z,16.20
2018-06-12T01:48:02.675Z,16.10
2018-06-12T01:50:31.663Z,16.10
2018-06-12T01:53:00.711Z,16.10
2018-06-12T01:55:29.709Z,16.00
2018-06-12T01:57:58.713Z,16.00
2018-06-12T02:00:27.723Z,16.10
2018-06-12T02:02:56.803Z,16.10
2018-06-12T02:05:25.807Z,16.10
2018-06-12T02:07:54.829Z,16.00
2018-06-12T02:15:32.631Z,16.00
2018-06-12T02:18:01.623Z,16.00
2018-06-12T02:20:30.618Z,16.00
2018-06-12T02:22:59.719Z,16.00
2018-06-12T02:25:28.731Z,16.00
2018-06-12T02:27:57.807Z,16.00
2018-06-12T02:30:26.782Z,15.90
2018-06-12T02:32:55.759Z,16.00
2018-06-12T02:35:24.779Z,15.90
2018-06-12T02:37:53.831Z,15.90
2018-06-12T02:40:22.840Z,15.90
2018-06-12T02:42:51.858Z,15.90
2018-06-12T02:45:21.006Z,16.00
2018-06-12T02:47:49.938Z,15.90
2018-06-12T02:50:18.914Z,15.90
2018-06-12T02:52:54.317Z,16.00
2018-06-12T02:55:23.275Z,16.00
2018-06-12T02:57:52.304Z,15.90
2018-06-12T03:00:21.283Z,15.90
2018-06-12T03:02:50.263Z,15.90
2018-06-12T03:05:19.246Z,15.90
2018-06-12T03:07:48.224Z,15.90
2018-06-12T03:10:17.205Z,15.90
2018-06-12T03:12:46.215Z,16.00
2018-06-12T03:15:15.222Z,16.00
2018-06-12T03:17:44.247Z,15.90
2018-06-12T03:20:13.225Z,15.90
2018-06-12T03:22:42.196Z,15.90
2018-06-12T03:25:11.182Z,15.80
2018-06-12T03:27:40.171Z,15.70
2018-06-12T03:30:09.220Z,15.70
2018-06-12T03:32:38.174Z,15.70
2018-06-12T03:35:07.158Z,15.70
2018-06-12T03:37:36.267Z,15.80
2018-06-12T03:40:05.247Z,15.90
2018-06-12T03:42:34.235Z,15.90
2018-06-12T03:45:03.332Z,15.80
2018-06-12T03:47:32.355Z,15.90
2018-06-12T03:50:01.353Z,15.70
2018-06-12T03:52:30.323Z,15.70
2018-06-12T03:54:59.494Z,15.70
2018-06-12T03:57:28.501Z,15.70
2018-06-12T03:59:57.490Z,15.60
2018-06-12T04:02:26.469Z,15.60
2018-06-12T04:04:55.521Z,15.60
2018-06-12T04:07:24.480Z,15.80
2018-06-12T04:09:53.511Z,15.80
2018-06-12T04:12:22.450Z,15.80
2018-06-12T04:14:51.679Z,15.80
2018-06-12T04:17:20.702Z,15.80
2018-06-12T04:19:49.667Z,15.80
2018-06-12T04:22:18.679Z,15.90
2018-06-12T04:24:48.242Z,15.90
2018-06-12T04:27:17.446Z,15.90
2018-06-12T04:29:46.438Z,16.00
2018-06-12T04:32:15.418Z,16.00
2018-06-12T04:34:44.407Z,16.10
2018-06-12T04:37:13.419Z,16.10
2018-06-12T04:39:42.485Z,16.10
2018-06-12T04:42:11.402Z,16.20
2018-06-12T04:44:40.442Z,16.20
2018-06-12T04:47:09.510Z,16.20
2018-06-12T04:49:38.534Z,16.20
2018-06-12T04:52:07.575Z,16.20
2018-06-12T04:54:36.709Z,16.20
2018-06-12T04:57:05.656Z,16.30
2018-06-12T04:59:34.651Z,16.20
2018-06-12T05:02:03.726Z,16.20
2018-06-12T05:04:32.735Z,16.30
2018-06-12T05:07:01.722Z,16.30
2018-06-12T05:09:30.741Z,16.30
2018-06-12T05:11:59.716Z,16.30
2018-06-12T05:14:28.720Z,16.30
2018-06-12T05:16:57.803Z,16.30
2018-06-12T05:19:26.942Z,16.30
2018-06-12T05:21:55.947Z,16.30
2018-06-12T05:24:24.926Z,16.30
2018-06-12T05:26:53.906Z,16.40
2018-06-12T05:29:22.970Z,16.40
2018-06-12T05:31:51.967Z,16.40
2018-06-12T05:34:20.970Z,16.40
2018-06-12T05:36:49.971Z,16.40
2018-06-12T05:39:18.982Z,16.40
2018-06-12T05:41:48.023Z,16.30
2018-06-12T05:44:17.023Z,16.40
2018-06-12T05:46:46.063Z,16.40
2018-06-12T05:49:15.031Z,16.50
2018-06-12T05:51:43.996Z,16.50
2018-06-12T05:54:13.019Z,16.50
2018-06-12T05:56:42.011Z,16.40
2018-06-12T05:59:11.006Z,16.60
2018-06-12T06:01:40.068Z,16.60
2018-06-12T06:04:09.126Z,16.70
2018-06-12T06:06:38.078Z,16.70
2018-06-12T06:11:46.131Z,16.80
2018-06-12T06:14:15.092Z,16.70
2018-06-12T06:16:44.071Z,16.70
2018-06-12T06:19:13.087Z,16.70
2018-06-12T06:21:42.095Z,16.80
2018-06-12T06:24:11.142Z,16.80
2018-06-12T06:26:40.264Z,17.00
2018-06-12T06:29:09.369Z,16.90
2018-06-12T06:31:38.511Z,16.80
2018-06-12T06:34:07.507Z,16.80
2018-06-12T06:36:36.916Z,16.80
2018-06-12T06:39:07.331Z,16.80
2018-06-12T06:41:36.305Z,16.80
2018-06-12T06:44:05.429Z,16.90
2018-06-12T06:46:34.459Z,16.90
2018-06-12T06:49:03.628Z,16.90
2018-06-12T06:51:32.670Z,16.90
2018-06-12T06:54:01.721Z,16.90
2018-06-12T06:56:30.712Z,16.80
2018-06-12T06:58:59.778Z,16.80
2018-06-12T07:01:28.798Z,16.80
2018-06-12T07:03:57.795Z,16.90
2018-06-12T07:06:26.996Z,17.00
2018-06-12T07:08:55.998Z,17.00
2018-06-12T07:11:24.990Z,17.10
2018-06-12T07:13:54.039Z,17.20
2018-06-12T07:16:23.038Z,17.10
2018-06-12T07:18:52.103Z,17.10
2018-06-12T07:21:23.132Z,17.10
2018-06-12T07:23:52.207Z,17.20
2018-06-12T07:26:21.210Z,17.30
2018-06-12T07:31:18.811Z,17.50
2018-06-12T07:33:47.814Z,17.50
2018-06-12T07:36:16.886Z,17.70
2018-06-12T07:38:45.877Z,17.70
2018-06-12T07:41:14.843Z,17.70
2018-06-12T07:43:43.863Z,17.70
2018-06-12T07:48:41.582Z,17.90
2018-06-12T07:51:10.692Z,18.10
2018-06-12T07:53:39.707Z,18.10
2018-06-12T07:56:08.722Z,18.10
2018-06-12T07:58:37.734Z,18.10
2018-06-12T08:01:06.855Z,18.20
2018-06-12T08:03:35.922Z,18.30
2018-06-12T08:06:04.958Z,18.50
2018-06-12T08:08:33.995Z,18.40
2018-06-12T08:11:03.063Z,18.00
2018-06-12T08:13:32.001Z,18.00
2018-06-12T08:16:01.027Z,18.20
2018-06-12T08:18:30.055Z,18.30
2018-06-12T08:20:59.014Z,18.50
2018-06-12T08:23:28.039Z,18.60
2018-06-12T08:25:57.055Z,18.60
2018-06-12T08:28:26.108Z,18.70
2018-06-12T08:30:55.110Z,18.60
2018-06-12T08:33:24.098Z,18.40
2018-06-12T08:35:53.135Z,18.50
2018-06-12T08:38:22.214Z,18.50
2018-06-12T08:40:51.205Z,18.30
2018-06-12T08:43:20.227Z,18.60
2018-06-12T08:45:49.274Z,18.70
2018-06-12T08:48:18.616Z,18.70
2018-06-12T08:50:47.685Z,18.50
2018-06-12T08:53:16.770Z,18.40
2018-06-12T08:55:45.746Z,18.40
2018-06-12T08:58:14.790Z,18.50
2018-06-12T09:00:43.866Z,18.50
2018-06-12T09:03:12.890Z,18.30
2018-06-12T09:05:41.887Z,18.50
2018-06-12T09:08:10.902Z,18.60
2018-06-12T09:10:39.959Z,18.30
2018-06-12T09:13:09.005Z,18.30
2018-06-12T09:15:38.105Z,18.30
2018-06-12T09:18:07.284Z,18.50
2018-06-12T09:20:36.314Z,18.80
2018-06-12T09:23:05.316Z,18.90
2018-06-12T09:25:34.379Z,19.10
2018-06-12T09:28:03.534Z,19.20
2018-06-12T09:30:32.525Z,19.00
2018-06-12T09:33:01.575Z,18.90
2018-06-12T09:35:30.575Z,19.20
2018-06-12T09:37:59.578Z,19.60
2018-06-12T09:40:30.135Z,19.90
2018-06-12T09:42:59.190Z,19.60
2018-06-12T09:45:28.324Z,20.00
2018-06-12T09:47:57.360Z,20.10
2018-06-12T09:50:26.440Z,20.10
2018-06-12T09:52:55.466Z,19.60
2018-06-12T09:55:24.496Z,19.60
2018-06-12T09:57:53.535Z,19.50
2018-06-12T10:00:27.957Z,19.20
2018-06-12T10:02:56.986Z,19.40
2018-06-12T10:05:26.006Z,19.50
2018-06-12T10:07:55.124Z,19.50
2018-06-12T10:10:24.096Z,19.50
2018-06-12T10:12:53.262Z,19.50
2018-06-12T10:15:22.251Z,19.50
2018-06-12T10:17:51.266Z,19.40
2018-06-12T10:20:20.348Z,19.00
2018-06-12T10:22:49.334Z,19.10
2018-06-12T10:25:18.371Z,19.20
2018-06-12T10:27:47.398Z,19.30
2018-06-12T10:30:16.452Z,19.30
2018-06-12T10:32:45.508Z,19.10
2018-06-12T10:35:14.574Z,19.00
2018-06-12T10:37:43.652Z,19.20
2018-06-12T10:40:12.646Z,19.40
2018-06-12T10:42:41.618Z,19.40
2018-06-12T10:45:10.666Z,19.30
2018-06-12T10:47:39.714Z,19.20
2018-06-12T10:50:08.867Z,19.10
2018-06-12T10:52:37.890Z,19.20
2018-06-12T10:55:07.002Z,19.40
2018-06-12T10:57:36.040Z,19.30
2018-06-12T11:00:05.031Z,19.40
2018-06-12T11:02:34.042Z,19.40
2018-06-12T11:05:03.087Z,19.40
2018-06-12T11:07:32.071Z,19.40
2018-06-12T11:10:01.120Z,19.40
2018-06-12T11:12:30.319Z,19.10
2018-06-12T11:14:59.306Z,19.20
2018-06-12T11:17:28.350Z,19.20
2018-06-12T11:19:57.366Z,19.20
2018-06-12T11:22:26.407Z,19.20
2018-06-12T11:24:55.366Z,19.20
2018-06-12T11:27:24.469Z,19.30
2018-06-12T11:29:53.462Z,19.40
2018-06-12T11:32:22.451Z,19.50
2018-06-12T11:34:51.494Z,19.40
2018-06-12T11:37:20.521Z,19.40
2018-06-12T11:39:49.536Z,19.30
2018-06-12T11:42:18.566Z,19.40
2018-06-12T11:47:16.419Z,19.50
2018-06-12T11:49:45.411Z,19.60
2018-06-12T11:52:14.477Z,19.50
2018-06-12T11:54:43.757Z,19.40
2018-06-12T11:57:12.873Z,19.50
2018-06-12T11:59:41.914Z,19.70
2018-06-12T12:02:11.123Z,19.80
2018-06-12T12:04:40.174Z,19.60
2018-06-12T12:07:10.199Z,19.70
2018-06-12T12:09:39.214Z,19.70
2018-06-12T12:12:08.235Z,19.60
2018-06-12T12:14:37.615Z,19.60
2018-06-12T12:17:06.659Z,20.00
2018-06-12T12:19:35.698Z,20.20
2018-06-12T12:22:04.670Z,19.80
2018-06-12T12:24:33.958Z,20.30
2018-06-12T12:27:02.976Z,20.60
2018-06-12T12:29:32.035Z,21.00
2018-06-12T12:32:01.006Z,21.40
2018-06-12T12:34:30.018Z,21.50
2018-06-12T12:36:58.991Z,21.60
2018-06-12T12:39:28.013Z,21.30
2018-06-12T12:41:57.055Z,20.80
2018-06-12T12:44:26.039Z,20.80
2018-06-12T12:46:55.042Z,20.70
2018-06-12T12:49:24.046Z,20.70
2018-06-12T12:51:53.019Z,20.70
2018-06-12T12:54:21.991Z,20.60
2018-06-12T12:56:51.007Z,20.60
2018-06-12T12:59:20.019Z,20.60
2018-06-12T13:01:49.010Z,20.70
2018-06-12T13:04:18.008Z,20.70
2018-06-12T13:06:46.996Z,20.70
2018-06-12T13:09:17.110Z,20.70
2018-06-12T13:11:46.186Z,20.60
2018-06-12T13:14:15.187Z,20.30
2018-06-12T13:16:44.229Z,20.40
2018-06-12T13:19:13.229Z,20.20
2018-06-12T13:21:42.195Z,20.30
2018-06-12T13:24:11.199Z,20.10
2018-06-12T13:26:40.278Z,20.20
2018-06-12T13:29:09.213Z,20.10
2018-06-12T13:31:38.196Z,20.20
2018-06-12T13:34:07.220Z,20.40
2018-06-12T13:36:36.212Z,20.60
2018-06-12T13:39:06.018Z,21.20
2018-06-12T13:41:35.064Z,21.50
2018-06-12T13:44:05.062Z,21.70
2018-06-12T13:46:34.157Z,21.80
2018-06-12T13:49:03.098Z,21.80
2018-06-12T13:51:32.083Z,21.50
2018-06-12T13:54:01.052Z,21.80
2018-06-12T13:56:30.234Z,21.80
2018-06-12T13:58:59.221Z,21.80
2018-06-12T14:01:28.203Z,21.50
2018-06-12T14:03:57.192Z,21.30
2018-06-12T14:06:26.150Z,21.20
2018-06-12T14:08:55.150Z,21.20
2018-06-12T14:11:24.209Z,20.90
2018-06-12T14:13:53.251Z,20.90
2018-06-12T14:16:22.374Z,20.70
2018-06-12T14:18:51.410Z,20.50
2018-06-12T14:21:20.451Z,20.20
2018-06-12T14:23:49.392Z,20.20
2018-06-12T14:26:18.491Z,20.30
2018-06-12T14:28:47.615Z,20.60
2018-06-12T14:31:16.750Z,20.80
2018-06-12T14:33:45.706Z,20.50
2018-06-12T14:36:14.722Z,20.70
2018-06-12T14:38:43.734Z,20.80
2018-06-12T14:41:12.751Z,20.70
2018-06-12T14:43:41.811Z,20.70
2018-06-12T14:46:10.774Z,20.60
2018-06-12T14:48:39.758Z,20.40
2018-06-12T14:51:08.786Z,20.40
2018-06-12T14:53:37.802Z,20.50
2018-06-12T14:56:06.886Z,20.40
2018-06-12T14:58:35.904Z,20.50
2018-06-12T15:01:04.932Z,20.40
2018-06-12T15:03:33.919Z,20.30
2018-06-12T15:06:02.954Z,20.30
2018-06-12T15:08:31.950Z,20.50
2018-06-12T15:11:00.979Z,20.60
2018-06-12T15:13:30.107Z,20.80
2018-06-12T15:15:59.112Z,20.70
2018-06-12T15:18:28.193Z,20.80
2018-06-12T15:20:57.178Z,20.80
2018-06-12T15:23:26.175Z,20.80
2018-06-12T15:25:55.194Z,20.70
2018-06-12T15:28:24.230Z,20.70
2018-06-12T15:30:53.212Z,20.60
2018-06-12T15:33:22.233Z,20.50
2018-06-12T15:35:51.351Z,20.30
2018-06-12T15:38:20.332Z,20.40
2018-06-12T15:40:49.335Z,20.30
2018-06-12T15:43:18.410Z,20.60
2018-06-12T15:45:47.459Z,20.70
2018-06-12T15:48:16.559Z,20.40
2018-06-12T15:50:45.490Z,20.40
2018-06-12T15:53:14.567Z,20.30
2018-06-12T15:55:43.736Z,20.40
2018-06-12T15:58:12.711Z,20.50
2018-06-12T16:00:41.880Z,20.30
2018-06-12T16:03:10.776Z,20.30
2018-06-12T16:05:39.801Z,20.30
2018-06-12T16:08:08.988Z,20.20
2018-06-12T16:10:37.934Z,20.20
2018-06-12T16:13:06.919Z,20.20
2018-06-12T16:15:35.895Z,20.10
2018-06-12T16:18:04.874Z,20.00
2018-06-12T16:20:33.850Z,19.80
2018-06-12T16:23:02.918Z,19.60
2018-06-12T16:25:31.956Z,19.70
2018-06-12T16:28:00.963Z,19.70
2018-06-12T16:30:30.084Z,19.70
2018-06-12T16:32:59.123Z,19.70
2018-06-12T16:35:28.217Z,19.60
2018-06-12T16:37:57.306Z,19.60
2018-06-12T16:40:26.378Z,19.60
2018-06-12T16:42:55.544Z,19.50
2018-06-12T16:45:24.531Z,19.60
2018-06-12T16:47:53.698Z,19.50
2018-06-12T16:50:22.791Z,19.30
2018-06-12T16:52:51.852Z,19.20
2018-06-12T16:55:20.866Z,19.30
2018-06-12T16:57:49.967Z,19.40
2018-06-12T17:00:19.017Z,19.40
2018-06-12T17:02:48.094Z,19.40
2018-06-12T17:05:17.211Z,19.40
2018-06-12T17:07:46.414Z,19.50
2018-06-12T17:10:15.527Z,19.50
2018-06-12T17:12:44.679Z,19.50
2018-06-12T17:15:13.675Z,19.50
2018-06-12T17:17:42.751Z,19.50
2018-06-12T17:20:11.758Z,19.30
2018-06-12T17:22:40.778Z,19.40
2018-06-12T17:25:09.760Z,19.30
2018-06-12T17:27:38.914Z,19.30
2018-06-12T17:30:07.887Z,19.30
2018-06-12T17:32:36.916Z,19.20
2018-06-12T17:35:05.917Z,19.20
2018-06-12T17:37:34.891Z,19.10
2018-06-12T17:40:03.887Z,19.10
2018-06-12T17:42:32.916Z,19.20
2018-06-12T17:45:01.915Z,19.20
2018-06-12T17:47:31.050Z,19.30
2018-06-12T17:50:00.018Z,19.30
2018-06-12T17:52:29.062Z,19.30
2018-06-12T17:54:58.253Z,19.30
2018-06-12T17:57:27.191Z,19.30
2018-06-12T17:59:56.356Z,19.30
2018-06-12T18:02:25.476Z,19.30
2018-06-12T18:04:54.519Z,19.30
2018-06-12T18:07:23.722Z,19.30
2018-06-12T18:09:52.860Z,19.20
2018-06-12T18:12:22.057Z,19.20
2018-06-12T18:14:51.078Z,19.20
2018-06-12T18:17:20.707Z,19.10
2018-06-12T18:19:55.059Z,19.00
2018-06-12T18:22:24.210Z,19.10
2018-06-12T18:24:53.231Z,19.00
2018-06-12T18:27:22.243Z,19.00
2018-06-12T18:29:51.307Z,19.00
2018-06-12T18:32:20.356Z,18.90
2018-06-12T18:34:49.350Z,18.90
2018-06-12T18:37:18.405Z,18.90
2018-06-12T18:39:47.579Z,18.80
2018-06-12T18:42:16.611Z,18.90
2018-06-12T18:44:45.547Z,18.80
2018-06-12T18:47:14.567Z,18.80
2018-06-12T18:49:43.571Z,18.80
2018-06-12T18:52:12.578Z,18.90
2018-06-12T18:54:43.002Z,18.80
2018-06-12T18:57:12.074Z,18.80
2018-06-12T18:59:41.146Z,18.60
2018-06-12T19:02:10.232Z,18.60
2018-06-12T19:04:39.389Z,18.70
2018-06-12T19:07:09.373Z,18.70
2018-06-12T19:09:38.380Z,18.70
2018-06-12T19:12:07.631Z,18.80
2018-06-12T19:14:38.600Z,18.70
2018-06-12T19:17:07.576Z,18.60
2018-06-12T19:19:36.640Z,18.60
2018-06-12T19:22:05.728Z,18.60
2018-06-12T19:24:34.730Z,18.60
2018-06-12T19:27:03.747Z,18.60
2018-06-12T19:29:32.750Z,18.60
2018-06-12T19:32:01.787Z,18.60
2018-06-12T19:34:30.810Z,18.50
2018-06-12T19:36:59.955Z,18.50
2018-06-12T19:39:29.284Z,18.50
2018-06-12T19:41:58.461Z,18.60
2018-06-12T19:44:27.603Z,18.60
2018-06-12T19:46:56.539Z,18.50
2018-06-12T19:49:25.644Z,18.50
2018-06-12T19:51:54.630Z,18.40
2018-06-12T19:54:23.667Z,18.40
2018-06-12T19:56:52.611Z,18.40
2018-06-12T19:59:21.598Z,18.40
2018-06-12T20:01:50.585Z,18.40
2018-06-12T20:04:19.589Z,18.40
2018-06-12T20:06:48.575Z,18.40
2018-06-12T20:09:17.606Z,18.40
2018-06-12T20:11:46.617Z,18.40
2018-06-12T20:14:15.728Z,18.40
2018-06-12T20:16:44.754Z,18.40
2018-06-12T20:19:13.850Z,18.40
2018-06-12T20:21:42.818Z,18.40
2018-06-12T20:24:11.814Z,18.40
2018-06-12T20:26:40.856Z,18.30
2018-06-12T20:29:09.911Z,18.20
2018-06-12T20:31:39.074Z,18.20
2018-06-12T20:34:08.087Z,18.20
2018-06-12T20:36:37.356Z,18.10
2018-06-12T20:39:09.150Z,18.10
2018-06-12T20:41:38.308Z,18.10
2018-06-12T20:44:07.354Z,18.00
2018-06-12T20:46:36.387Z,18.00
2018-06-12T20:49:05.403Z,18.00
2018-06-12T20:51:34.439Z,18.00
2018-06-12T20:54:03.537Z,17.90
2018-06-12T20:56:32.627Z,17.90
2018-06-12T20:59:01.637Z,17.80
2018-06-12T21:01:30.679Z,17.80
2018-06-12T21:03:59.777Z,17.80
2018-06-12T21:06:29.107Z,17.70
2018-06-12T21:08:58.098Z,17.70
2018-06-12T21:11:27.892Z,17.60
2018-06-12T21:13:57.224Z,17.70
2018-06-12T21:16:26.304Z,17.50
2018-06-12T21:18:55.398Z,17.50
2018-06-12T21:21:24.643Z,17.40
2018-06-12T21:23:53.582Z,17.40
2018-06-12T21:26:22.551Z,17.30
2018-06-12T21:28:51.826Z,17.30
2018-06-12T21:31:20.799Z,17.30
2018-06-12T21:33:49.759Z,17.20
2018-06-12T21:36:18.774Z,17.20
2018-06-12T21:38:47.827Z,17.20
2018-06-12T21:41:16.840Z,17.20
2018-06-12T21:43:45.810Z,17.10
2018-06-12T21:46:14.815Z,17.10
2018-06-12T21:48:43.842Z,17.10
2018-06-12T21:51:12.999Z,17.10
2018-06-12T21:53:41.998Z,17.10
2018-06-12T21:56:11.022Z,17.10
2018-06-12T21:58:40.294Z,17.00
2018-06-12T22:01:09.667Z,17.10
2018-06-12T22:03:38.738Z,17.00
2018-06-12T22:06:07.713Z,16.90
2018-06-12T22:08:36.687Z,16.90
2018-06-12T22:11:05.852Z,16.90
2018-06-12T22:13:34.896Z,16.80
2018-06-12T22:16:04.261Z,16.80
2018-06-12T22:18:33.304Z,16.80
2018-06-12T22:21:02.260Z,16.80
2018-06-12T22:23:31.243Z,16.80
2018-06-12T22:26:00.347Z,16.80
2018-06-12T22:28:29.423Z,16.80
2018-06-12T22:30:58.527Z,16.80
2018-06-12T22:33:27.638Z,16.70
2018-06-12T22:35:56.720Z,16.70
2018-06-12T22:38:25.735Z,16.70
2018-06-12T22:40:54.751Z,16.70
2018-06-12T22:43:23.743Z,16.70
2018-06-12T22:45:52.827Z,16.70
2018-06-12T22:48:21.808Z,16.70
2018-06-12T22:50:51.078Z,16.60
2018-06-12T22:53:19.986Z,16.60
2018-06-12T22:55:49.022Z,16.60
2018-06-12T22:58:18.332Z,16.70
2018-06-12T23:00:47.376Z,16.50
2018-06-12T23:03:16.478Z,16.50
2018-06-12T23:05:45.492Z,16.60
2018-06-12T23:08:14.819Z,16.60
2018-06-12T23:10:43.858Z,16.60
2018-06-12T23:13:12.823Z,16.60
2018-06-12T23:15:41.891Z,16.60
2018-06-12T23:18:11.018Z,16.50
2018-06-12T23:20:51.371Z,16.50
2018-06-12T23:23:20.406Z,16.50
2018-06-12T23:25:49.590Z,16.40
2018-06-12T23:28:18.618Z,16.40
2018-06-12T23:30:47.594Z,16.30
2018-06-12T23:33:16.606Z,16.40
2018-06-12T23:35:45.654Z,16.40
2018-06-12T23:38:14.628Z,16.40
2018-06-12T23:40:43.650Z,16.40
2018-06-12T23:43:12.656Z,16.50
2018-06-12T23:45:41.695Z,16.40
2018-06-12T23:50:49.710Z,16.40
2018-06-12T23:53:18.759Z,16.40
2018-06-12T23:55:47.755Z,16.30
2018-06-12T23:58:16.791Z,16.40
